sensor_id;sensor_type;location;lat;lon;timestamp;pressure;altitude;pressure_sealevel;temperature;humidity
54666;BME280;40566;50.006;36.180;2023-04-10T00:02:39;100501.94;;;9.37;51.35
54666;BME280;40566;50.006;36.180;2023-04-10T00:07:40;100503.59;;;9.44;51.64
54666;BME280;40566;50.006;36.180;2023-04-10T00:12:40;100507.03;;;9.46;51.55
54666;BME280;40566;50.006;36.180;2023-04-10T00:17:41;100499.28;;;9.46;51.78
54666;BME280;40566;50.006;36.180;2023-04-10T00:22:42;100500.13;;;9.47;51.96
54666;BME280;40566;50.006;36.180;2023-04-10T00:27:43;100498.38;;;9.50;52.15
54666;BME280;40566;50.006;36.180;2023-04-10T00:32:44;100494.88;;;9.55;52.05
54666;BME280;40566;50.006;36.180;2023-04-10T00:37:44;100492.22;;;9.59;52.26
54666;BME280;40566;50.006;36.180;2023-04-10T00:42:45;100494.81;;;9.58;52.53
54666;BME280;40566;50.006;36.180;2023-04-10T00:47:46;100497.41;;;9.58;52.59
54666;BME280;40566;50.006;36.180;2023-04-10T00:52:47;100502.56;;;9.58;52.59
54666;BME280;40566;50.006;36.180;2023-04-10T00:57:48;100499.97;;;9.58;52.58
54666;BME280;40566;50.006;36.180;2023-04-10T01:02:48;100498.31;;;9.53;52.58
54666;BME280;40566;50.006;36.180;2023-04-10T01:08:16;100483.81;;;9.42;53.04
54666;BME280;40566;50.006;36.180;2023-04-10T01:13:24;100499.44;;;9.31;53.13
54666;BME280;40566;50.006;36.180;2023-04-10T01:29:06;100483.25;;;9.15;53.74
54666;BME280;40566;50.006;36.180;2023-04-10T01:34:13;100485.03;;;9.08;53.95
54666;BME280;40566;50.006;36.180;2023-04-10T01:39:19;100479.06;;;9.02;53.84
54666;BME280;40566;50.006;36.180;2023-04-10T01:44:22;100473.97;;;8.97;54.11
54666;BME280;40566;50.006;36.180;2023-04-10T01:49:27;100474.88;;;8.93;54.17
54666;BME280;40566;50.006;36.180;2023-04-10T01:54:31;100486.88;;;8.94;53.89
54666;BME280;40566;50.006;36.180;2023-04-10T01:59:32;100490.34;;;8.90;54.08
54666;BME280;40566;50.006;36.180;2023-04-10T02:04:33;100486.97;;;8.85;54.19
54666;BME280;40566;50.006;36.180;2023-04-10T02:09:47;100483.56;;;8.80;54.24
54666;BME280;40566;50.006;36.180;2023-04-10T02:14:52;100487.94;;;8.70;54.70
54666;BME280;40566;50.006;36.180;2023-04-10T02:19:54;100495.72;;;8.67;54.78
54666;BME280;40566;50.006;36.180;2023-04-10T02:24:56;100498.38;;;8.54;55.08
54666;BME280;40566;50.006;36.180;2023-04-10T02:29:56;100516.47;;;8.47;55.47
54666;BME280;40566;50.006;36.180;2023-04-10T02:34:57;100517.38;;;8.44;55.46
54666;BME280;40566;50.006;36.180;2023-04-10T02:39:58;100519.94;;;8.40;55.47
54666;BME280;40566;50.006;36.180;2023-04-10T02:44:59;100515.69;;;8.34;55.63
54666;BME280;40566;50.006;36.180;2023-04-10T02:49:59;100521.72;;;8.30;55.93
54666;BME280;40566;50.006;36.180;2023-04-10T02:55:00;100520.88;;;8.25;55.95
54666;BME280;40566;50.006;36.180;2023-04-10T03:00:02;100509.72;;;8.24;55.91
54666;BME280;40566;50.006;36.180;2023-04-10T03:05:04;100514.91;;;8.15;56.10
54666;BME280;40566;50.006;36.180;2023-04-10T03:10:05;100502.91;;;8.14;56.04
54666;BME280;40566;50.006;36.180;2023-04-10T03:15:06;100509.78;;;8.15;56.22
54666;BME280;40566;50.006;36.180;2023-04-10T03:20:08;100507.19;;;8.13;56.11
54666;BME280;40566;50.006;36.180;2023-04-10T03:25:09;100506.34;;;8.13;56.04
54666;BME280;40566;50.006;36.180;2023-04-10T03:30:09;100509.75;;;8.17;56.12
54666;BME280;40566;50.006;36.180;2023-04-10T03:35:10;100508.91;;;8.16;55.90
54666;BME280;40566;50.006;36.180;2023-04-10T03:40:11;100520.91;;;8.19;55.81
54666;BME280;40566;50.006;36.180;2023-04-10T03:45:12;100520.91;;;8.20;55.95
54666;BME280;40566;50.006;36.180;2023-04-10T03:50:12;100507.25;;;8.04;56.10
54666;BME280;40566;50.006;36.180;2023-04-10T03:55:13;100519.22;;;8.13;56.11
54666;BME280;40566;50.006;36.180;2023-04-10T04:00:19;100519.19;;;8.21;56.11
54666;BME280;40566;50.006;36.180;2023-04-10T04:05:19;100522.63;;;8.21;56.00
54666;BME280;40566;50.006;36.180;2023-04-10T04:10:20;100524.31;;;8.31;55.54
54666;BME280;40566;50.006;36.180;2023-04-10T04:15:20;100522.56;;;8.30;55.64
54666;BME280;40566;50.006;36.180;2023-04-10T04:20:23;100519.09;;;8.38;55.72
54666;BME280;40566;50.006;36.180;2023-04-10T04:25:23;100519.94;;;8.46;55.78
54666;BME280;40566;50.006;36.180;2023-04-10T04:30:24;100524.25;;;8.42;55.88
54666;BME280;40566;50.006;36.180;2023-04-10T04:35:24;100525.94;;;8.46;55.63
54666;BME280;40566;50.006;36.180;2023-04-10T04:40:25;100529.38;;;8.48;55.70
54666;BME280;40566;50.006;36.180;2023-04-10T04:45:26;100535.31;;;8.57;55.67
54666;BME280;40566;50.006;36.180;2023-04-10T04:50:26;100538.66;;;8.72;55.31
54666;BME280;40566;50.006;36.180;2023-04-10T04:55:27;100538.59;;;8.80;55.29
54666;BME280;40566;50.006;36.180;2023-04-10T05:00:27;100541.06;;;8.92;54.80
54666;BME280;40566;50.006;36.180;2023-04-10T05:05:28;100540.09;;;9.04;54.41
54666;BME280;40566;50.006;36.180;2023-04-10T05:10:28;100538.34;;;9.12;54.24
54666;BME280;40566;50.006;36.180;2023-04-10T05:15:29;100539.91;;;9.26;53.77
54666;BME280;40566;50.006;36.180;2023-04-10T05:20:30;100543.25;;;9.37;53.04
54666;BME280;40566;50.006;36.180;2023-04-10T05:25:34;100535.38;;;9.51;52.72
54666;BME280;40566;50.006;36.180;2023-04-10T05:30:34;100543.78;;;9.68;52.19
54666;BME280;40566;50.006;36.180;2023-04-10T05:35:35;100541.88;;;9.86;51.70
54666;BME280;40566;50.006;36.180;2023-04-10T05:40:35;100541.63;;;10.03;51.59
54666;BME280;40566;50.006;36.180;2023-04-10T05:45:36;100539.69;;;10.22;51.05
54666;BME280;40566;50.006;36.180;2023-04-10T05:50:37;100541.19;;;10.41;50.48
54666;BME280;40566;50.006;36.180;2023-04-10T05:55:37;100545.13;;;10.64;50.05
54666;BME280;40566;50.006;36.180;2023-04-10T06:00:38;100553.41;;;10.87;49.21
54666;BME280;40566;50.006;36.180;2023-04-10T06:05:38;100551.31;;;11.09;48.76
54666;BME280;40566;50.006;36.180;2023-04-10T06:10:40;100555.38;;;11.24;48.60
54666;BME280;40566;50.006;36.180;2023-04-10T06:15:41;100547.28;;;11.41;47.94
54666;BME280;40566;50.006;36.180;2023-04-10T06:20:42;100547.00;;;11.57;47.65
54666;BME280;40566;50.006;36.180;2023-04-10T06:25:42;100545.81;;;11.75;47.25
54666;BME280;40566;50.006;36.180;2023-04-10T06:30:43;100552.28;;;11.99;46.71
54666;BME280;40566;50.006;36.180;2023-04-10T06:35:44;100544.13;;;12.16;46.00
54666;BME280;40566;50.006;36.180;2023-04-10T06:40:44;100544.56;;;12.36;45.60
54666;BME280;40566;50.006;36.180;2023-04-10T06:45:45;100540.63;;;12.56;44.82
54666;BME280;40566;50.006;36.180;2023-04-10T06:50:46;100548.19;;;12.66;44.04
54666;BME280;40566;50.006;36.180;2023-04-10T06:55:46;100540.00;;;12.83;43.44
54666;BME280;40566;50.006;36.180;2023-04-10T07:00:47;100536.97;;;13.02;42.71
54666;BME280;40566;50.006;36.180;2023-04-10T07:05:48;100538.28;;;13.17;42.20
54666;BME280;40566;50.006;36.180;2023-04-10T07:10:48;100543.19;;;13.29;41.73
54666;BME280;40566;50.006;36.180;2023-04-10T07:15:49;100543.78;;;13.40;41.62
54666;BME280;40566;50.006;36.180;2023-04-10T07:20:50;100539.81;;;13.58;40.73
54666;BME280;40566;50.006;36.180;2023-04-10T07:25:51;100533.44;;;13.70;40.62
54666;BME280;40566;50.006;36.180;2023-04-10T07:30:52;100520.78;;;13.89;39.85
54666;BME280;40566;50.006;36.180;2023-04-10T07:35:52;100528.94;;;14.06;39.54
54666;BME280;40566;50.006;36.180;2023-04-10T07:40:59;100518.97;;;14.21;39.00
54666;BME280;40566;50.006;36.180;2023-04-10T07:46:00;100531.28;;;14.44;38.87
54666;BME280;40566;50.006;36.180;2023-04-10T07:51:01;100528.16;;;14.61;38.65
54666;BME280;40566;50.006;36.180;2023-04-10T07:56:01;100520.84;;;14.72;38.22
54666;BME280;40566;50.006;36.180;2023-04-10T08:01:02;100518.59;;;14.88;38.63
54666;BME280;40566;50.006;36.180;2023-04-10T08:06:03;100502.63;;;14.99;38.25
54666;BME280;40566;50.006;36.180;2023-04-10T08:11:07;100495.06;;;15.16;37.99
54666;BME280;40566;50.006;36.180;2023-04-10T08:16:32;100481.22;;;15.39;37.89
54666;BME280;40566;50.006;36.180;2023-04-10T08:21:33;100485.09;;;15.53;37.89
54666;BME280;40566;50.006;36.180;2023-04-10T08:26:33;100480.34;;;15.64;37.37
54666;BME280;40566;50.006;36.180;2023-04-10T08:31:34;100480.34;;;15.88;37.14
54666;BME280;40566;50.006;36.180;2023-04-10T08:36:35;100476.34;;;16.01;36.67
54666;BME280;40566;50.006;36.180;2023-04-10T08:41:35;100464.47;;;16.16;36.41
54666;BME280;40566;50.006;36.180;2023-04-10T08:46:41;100462.91;;;16.34;35.91
54666;BME280;40566;50.006;36.180;2023-04-10T08:51:50;100455.56;;;16.21;35.54
54666;BME280;40566;50.006;36.180;2023-04-10T08:56:55;100460.84;;;16.20;35.42
54666;BME280;40566;50.006;36.180;2023-04-10T09:01:58;100471.69;;;16.53;35.00
54666;BME280;40566;50.006;36.180;2023-04-10T09:06:59;100472.63;;;16.73;35.05
54666;BME280;40566;50.006;36.180;2023-04-10T09:12:00;100464.81;;;16.93;34.73
54666;BME280;40566;50.006;36.180;2023-04-10T09:17:22;100458.69;;;17.15;34.33
54666;BME280;40566;50.006;36.180;2023-04-10T09:22:31;100459.47;;;17.17;34.37
54666;BME280;40566;50.006;36.180;2023-04-10T09:27:34;100447.41;;;17.33;34.12
54666;BME280;40566;50.006;36.180;2023-04-10T09:37:35;100448.38;;;27.21;22.19
54666;BME280;40566;50.006;36.180;2023-04-10T09:42:36;100437.47;;;30.57;19.21
54666;BME280;40566;50.006;36.180;2023-04-10T09:47:37;100443.53;;;28.36;21.95
54666;BME280;40566;50.006;36.180;2023-04-10T09:52:37;100437.53;;;31.18;19.25
54666;BME280;40566;50.006;36.180;2023-04-10T09:57:38;100431.41;;;33.08;18.00
54666;BME280;40566;50.006;36.180;2023-04-10T10:02:39;100423.84;;;34.74;16.93
54666;BME280;40566;50.006;36.180;2023-04-10T10:07:40;100430.22;;;33.58;18.05
54666;BME280;40566;50.006;36.180;2023-04-10T10:12:48;100419.34;;;33.20;18.13
54666;BME280;40566;50.006;36.180;2023-04-10T10:23:24;100399.34;;;26.52;23.92
54666;BME280;40566;50.006;36.180;2023-04-10T10:28:27;100405.00;;;28.60;21.29
54666;BME280;40566;50.006;36.180;2023-04-10T10:33:31;100398.44;;;27.96;21.80
54666;BME280;40566;50.006;36.180;2023-04-10T10:38:38;100402.81;;;26.64;22.93
54666;BME280;40566;50.006;36.180;2023-04-10T10:43:55;100387.75;;;27.86;22.21
54666;BME280;40566;50.006;36.180;2023-04-10T10:48:59;100392.84;;;32.61;17.75
54666;BME280;40566;50.006;36.180;2023-04-10T10:54:01;100397.19;;;33.66;17.02
54666;BME280;40566;50.006;36.180;2023-04-10T10:59:02;100394.84;;;33.23;17.37
54666;BME280;40566;50.006;36.180;2023-04-10T11:04:41;100381.75;;;30.36;20.30
54666;BME280;40566;50.006;36.180;2023-04-10T11:09:48;100367.56;;;31.90;18.66
54666;BME280;40566;50.006;36.180;2023-04-10T11:15:02;100374.50;;;33.37;17.87
54666;BME280;40566;50.006;36.180;2023-04-10T11:20:04;100365.44;;;33.92;17.30
54666;BME280;40566;50.006;36.180;2023-04-10T11:25:07;100364.31;;;36.02;15.76
54666;BME280;40566;50.006;36.180;2023-04-10T11:30:29;100355.25;;;36.31;16.36
54666;BME280;40566;50.006;36.180;2023-04-10T11:35:30;100353.31;;;36.18;16.46
54666;BME280;40566;50.006;36.180;2023-04-10T11:40:31;100345.16;;;36.68;15.46
54666;BME280;40566;50.006;36.180;2023-04-10T11:45:31;100350.19;;;34.84;16.98
54666;BME280;40566;50.006;36.180;2023-04-10T11:50:32;100341.19;;;32.84;17.81
54666;BME280;40566;50.006;36.180;2023-04-10T11:55:38;100332.09;;;31.12;19.13
54666;BME280;40566;50.006;36.180;2023-04-10T12:00:39;100323.38;;;32.99;17.32
54666;BME280;40566;50.006;36.180;2023-04-10T12:05:45;100323.88;;;32.63;16.90
54666;BME280;40566;50.006;36.180;2023-04-10T12:10:46;100315.69;;;29.58;19.35
54666;BME280;40566;50.006;36.180;2023-04-10T12:15:47;100305.19;;;27.68;20.72
54666;BME280;40566;50.006;36.180;2023-04-10T12:20:47;100301.16;;;27.04;20.95
54666;BME280;40566;50.006;36.180;2023-04-10T12:25:51;100295.66;;;27.46;20.35
54666;BME280;40566;50.006;36.180;2023-04-10T12:30:52;100285.56;;;29.02;19.08
54666;BME280;40566;50.006;36.180;2023-04-10T12:35:53;100290.56;;;30.49;17.82
54666;BME280;40566;50.006;36.180;2023-04-10T12:40:58;100288.13;;;30.12;17.86
54666;BME280;40566;50.006;36.180;2023-04-10T12:45:59;100294.94;;;28.22;19.18
54666;BME280;40566;50.006;36.180;2023-04-10T12:51:00;100284.53;;;25.11;21.65
54666;BME280;40566;50.006;36.180;2023-04-10T12:56:05;100276.47;;;23.14;23.21
54666;BME280;40566;50.006;36.180;2023-04-10T13:01:08;100274.16;;;22.07;24.04
54666;BME280;40566;50.006;36.180;2023-04-10T13:06:09;100274.00;;;21.43;24.43
54666;BME280;40566;50.006;36.180;2023-04-10T13:11:09;100275.94;;;20.98;24.59
54666;BME280;40566;50.006;36.180;2023-04-10T13:16:10;100264.75;;;20.51;24.92
54666;BME280;40566;50.006;36.180;2023-04-10T13:21:12;100267.31;;;20.08;25.09
54666;BME280;40566;50.006;36.180;2023-04-10T13:26:17;100262.16;;;19.76;25.37
54666;BME280;40566;50.006;36.180;2023-04-10T13:31:18;100257.72;;;19.47;25.66
54666;BME280;40566;50.006;36.180;2023-04-10T13:36:18;100246.00;;;19.22;26.34
54666;BME280;40566;50.006;36.180;2023-04-10T13:41:19;100238.06;;;19.08;26.39
54666;BME280;40566;50.006;36.180;2023-04-10T13:46:20;100229.56;;;18.87;26.52
54666;BME280;40566;50.006;36.180;2023-04-10T13:51:20;100241.22;;;18.81;26.82
54666;BME280;40566;50.006;36.180;2023-04-10T13:56:21;100237.19;;;18.58;26.88
54666;BME280;40566;50.006;36.180;2023-04-10T14:01:21;100229.28;;;18.42;26.83
54666;BME280;40566;50.006;36.180;2023-04-10T14:06:22;100228.81;;;18.18;27.16
54666;BME280;40566;50.006;36.180;2023-04-10T14:11:24;100226.00;;;18.05;27.02
54666;BME280;40566;50.006;36.180;2023-04-10T14:16:25;100226.75;;;17.90;27.02
54666;BME280;40566;50.006;36.180;2023-04-10T14:21:25;100228.81;;;17.66;27.51
54666;BME280;40566;50.006;36.180;2023-04-10T14:26:26;100232.09;;;17.52;27.87
54666;BME280;40566;50.006;36.180;2023-04-10T14:31:27;100225.94;;;17.16;27.97
54666;BME280;40566;50.006;36.180;2023-04-10T14:36:27;100225.94;;;16.97;28.24
54666;BME280;40566;50.006;36.180;2023-04-10T14:41:28;100223.91;;;16.85;28.12
54666;BME280;40566;50.006;36.180;2023-04-10T14:46:29;100222.41;;;16.79;28.15
54666;BME280;40566;50.006;36.180;2023-04-10T14:51:29;100222.75;;;16.72;28.64
54666;BME280;40566;50.006;36.180;2023-04-10T14:56:31;100211.09;;;16.60;28.72
54666;BME280;40566;50.006;36.180;2023-04-10T15:01:32;100207.41;;;16.45;28.78
54666;BME280;40566;50.006;36.180;2023-04-10T15:06:33;100200.09;;;16.33;29.10
54666;BME280;40566;50.006;36.180;2023-04-10T15:11:33;100202.09;;;16.28;29.25
54666;BME280;40566;50.006;36.180;2023-04-10T15:16:34;100198.38;;;16.13;29.79
54666;BME280;40566;50.006;36.180;2023-04-10T15:21:35;100198.06;;;16.00;29.82
54666;BME280;40566;50.006;36.180;2023-04-10T15:26:35;100200.41;;;15.85;30.15
54666;BME280;40566;50.006;36.180;2023-04-10T15:31:36;100206.13;;;15.73;30.55
54666;BME280;40566;50.006;36.180;2023-04-10T15:36:36;100201.47;;;15.59;30.60
54666;BME280;40566;50.006;36.180;2023-04-10T15:41:37;100198.59;;;15.45;30.87
54666;BME280;40566;50.006;36.180;2023-04-10T15:46:37;100202.88;;;15.24;31.15
54666;BME280;40566;50.006;36.180;2023-04-10T15:51:38;100204.22;;;15.12;31.38
54666;BME280;40566;50.006;36.180;2023-04-10T15:56:38;100194.09;;;15.04;31.40
54666;BME280;40566;50.006;36.180;2023-04-10T16:01:40;100191.13;;;14.92;31.57
54666;BME280;40566;50.006;36.180;2023-04-10T16:06:40;100197.72;;;14.78;32.17
54666;BME280;40566;50.006;36.180;2023-04-10T16:11:41;100194.66;;;14.67;32.31
54666;BME280;40566;50.006;36.180;2023-04-10T16:16:41;100201.13;;;14.55;32.54
54666;BME280;40566;50.006;36.180;2023-04-10T16:21:42;100193.00;;;14.41;32.57
54666;BME280;40566;50.006;36.180;2023-04-10T16:26:44;100190.78;;;14.30;32.84
54666;BME280;40566;50.006;36.180;2023-04-10T16:31:44;100200.69;;;14.20;33.29
54666;BME280;40566;50.006;36.180;2023-04-10T16:36:45;100199.41;;;14.07;33.47
54666;BME280;40566;50.006;36.180;2023-04-10T16:41:46;100196.31;;;13.96;33.55
54666;BME280;40566;50.006;36.180;2023-04-10T16:46:46;100198.25;;;13.91;33.95
54666;BME280;40566;50.006;36.180;2023-04-10T16:51:48;100191.75;;;13.77;34.24
54666;BME280;40566;50.006;36.180;2023-04-10T16:56:48;100204.38;;;13.63;34.47
54666;BME280;40566;50.006;36.180;2023-04-10T17:01:50;100198.47;;;13.58;34.65
54666;BME280;40566;50.006;36.180;2023-04-10T17:06:50;100203.91;;;13.50;34.87
54666;BME280;40566;50.006;36.180;2023-04-10T17:11:51;100210.34;;;13.38;35.25
54666;BME280;40566;50.006;36.180;2023-04-10T17:16:52;100214.06;;;13.31;35.22
54666;BME280;40566;50.006;36.180;2023-04-10T17:21:53;100219.50;;;13.22;35.60
54666;BME280;40566;50.006;36.180;2023-04-10T17:26:53;100211.19;;;13.10;35.67
54666;BME280;40566;50.006;36.180;2023-04-10T17:31:56;100209.69;;;13.03;35.86
54666;BME280;40566;50.006;36.180;2023-04-10T17:36:57;100209.84;;;12.97;35.97
54666;BME280;40566;50.006;36.180;2023-04-10T17:41:57;100200.59;;;12.88;36.26
54666;BME280;40566;50.006;36.180;2023-04-10T17:47:00;100194.66;;;12.85;36.18
54666;BME280;40566;50.006;36.180;2023-04-10T17:52:00;100194.06;;;12.75;36.40
54666;BME280;40566;50.006;36.180;2023-04-10T17:57:01;100200.38;;;12.66;36.73
54666;BME280;40566;50.006;36.180;2023-04-10T18:02:02;100197.09;;;12.60;36.85
54666;BME280;40566;50.006;36.180;2023-04-10T18:07:02;100190.41;;;12.53;36.67
54666;BME280;40566;50.006;36.180;2023-04-10T18:12:03;100199.22;;;12.47;36.91
54666;BME280;40566;50.006;36.180;2023-04-10T18:17:03;100195.94;;;12.40;36.84
54666;BME280;40566;50.006;36.180;2023-04-10T18:22:04;100194.28;;;12.38;36.88
54666;BME280;40566;50.006;36.180;2023-04-10T18:27:06;100185.72;;;12.34;36.93
54666;BME280;40566;50.006;36.180;2023-04-10T18:32:06;100192.00;;;12.27;37.37
54666;BME280;40566;50.006;36.180;2023-04-10T18:37:07;100192.19;;;12.19;37.49
54666;BME280;40566;50.006;36.180;2023-04-10T18:42:08;100192.34;;;12.15;37.51
54666;BME280;40566;50.006;36.180;2023-04-10T18:47:12;100177.75;;;12.10;37.72
54666;BME280;40566;50.006;36.180;2023-04-10T18:52:13;100177.03;;;12.04;37.79
54666;BME280;40566;50.006;36.180;2023-04-10T18:57:14;100172.84;;;12.00;37.92
54666;BME280;40566;50.006;36.180;2023-04-10T19:02:15;100181.59;;;11.96;38.09
54666;BME280;40566;50.006;36.180;2023-04-10T19:07:15;100177.41;;;11.90;37.97
54666;BME280;40566;50.006;36.180;2023-04-10T19:12:16;100172.28;;;11.87;38.09
54666;BME280;40566;50.006;36.180;2023-04-10T19:17:16;100180.16;;;11.82;38.26
54666;BME280;40566;50.006;36.180;2023-04-10T19:22:20;100176.88;;;11.77;38.49
54666;BME280;40566;50.006;36.180;2023-04-10T19:27:21;100179.63;;;11.71;38.38
54666;BME280;40566;50.006;36.180;2023-04-10T19:32:22;100176.28;;;11.66;38.58
54666;BME280;40566;50.006;36.180;2023-04-10T19:37:23;100181.59;;;11.61;38.87
54666;BME280;40566;50.006;36.180;2023-04-10T19:42:24;100181.66;;;11.58;38.78
54666;BME280;40566;50.006;36.180;2023-04-10T19:47:25;100177.44;;;11.54;38.80
54666;BME280;40566;50.006;36.180;2023-04-10T19:52:26;100177.63;;;11.46;39.19
54666;BME280;40566;50.006;36.180;2023-04-10T19:57:26;100175.22;;;11.39;39.35
54666;BME280;40566;50.006;36.180;2023-04-10T20:02:27;100177.84;;;11.37;39.34
54666;BME280;40566;50.006;36.180;2023-04-10T20:07:28;100177.16;;;11.30;39.39
54666;BME280;40566;50.006;36.180;2023-04-10T20:12:29;100172.03;;;11.27;39.58
54666;BME280;40566;50.006;36.180;2023-04-10T20:17:33;100186.06;;;11.19;39.65
54666;BME280;40566;50.006;36.180;2023-04-10T20:22:34;100167.09;;;11.18;39.62
54666;BME280;40566;50.006;36.180;2023-04-10T20:27:34;100179.19;;;11.18;39.80
54666;BME280;40566;50.006;36.180;2023-04-10T20:32:35;100181.00;;;11.14;40.02
54666;BME280;40566;50.006;36.180;2023-04-10T20:37:36;100182.75;;;11.12;40.19
54666;BME280;40566;50.006;36.180;2023-04-10T20:42:36;100178.44;;;11.13;40.34
54666;BME280;40566;50.006;36.180;2023-04-10T20:47:37;100169.88;;;11.09;40.46
54666;BME280;40566;50.006;36.180;2023-04-10T20:52:38;100157.09;;;11.01;40.62
54666;BME280;40566;50.006;36.180;2023-04-10T20:57:40;100159.66;;;11.03;40.63
54666;BME280;40566;50.006;36.180;2023-04-10T21:02:40;100168.28;;;11.03;40.75
54666;BME280;40566;50.006;36.180;2023-04-10T21:07:41;100158.88;;;10.99;41.31
54666;BME280;40566;50.006;36.180;2023-04-10T21:12:42;100159.81;;;10.97;41.44
54666;BME280;40566;50.006;36.180;2023-04-10T21:17:42;100156.38;;;10.96;41.49
54666;BME280;40566;50.006;36.180;2023-04-10T21:22:43;100152.97;;;10.94;41.70
54666;BME280;40566;50.006;36.180;2023-04-10T21:27:43;100146.19;;;10.88;41.89
54666;BME280;40566;50.006;36.180;2023-04-10T21:32:44;100152.25;;;10.87;41.97
54666;BME280;40566;50.006;36.180;2023-04-10T21:37:44;100148.78;;;10.88;42.02
54666;BME280;40566;50.006;36.180;2023-04-10T21:42:45;100147.91;;;10.88;42.44
54666;BME280;40566;50.006;36.180;2023-04-10T21:47:46;100152.34;;;10.83;42.57
54666;BME280;40566;50.006;36.180;2023-04-10T21:52:46;100141.34;;;10.75;42.81
54666;BME280;40566;50.006;36.180;2023-04-10T21:57:47;100145.63;;;10.74;42.88
54666;BME280;40566;50.006;36.180;2023-04-10T22:02:48;100127.56;;;10.73;42.87
54666;BME280;40566;50.006;36.180;2023-04-10T22:07:49;100120.69;;;10.71;42.99
54666;BME280;40566;50.006;36.180;2023-04-10T22:12:50;100119.13;;;10.64;43.26
54666;BME280;40566;50.006;36.180;2023-04-10T22:17:50;100101.97;;;10.60;43.20
54666;BME280;40566;50.006;36.180;2023-04-10T22:22:51;100108.13;;;10.55;43.39
54666;BME280;40566;50.006;36.180;2023-04-10T22:27:51;100107.41;;;10.48;43.67
54666;BME280;40566;50.006;36.180;2023-04-10T22:32:55;100095.44;;;10.44;43.73
54666;BME280;40566;50.006;36.180;2023-04-10T22:37:56;100094.72;;;10.37;44.00
54666;BME280;40566;50.006;36.180;2023-04-10T22:42:57;100096.63;;;10.27;44.26
54666;BME280;40566;50.006;36.180;2023-04-10T22:47:58;100094.88;;;10.28;44.31
54666;BME280;40566;50.006;36.180;2023-04-10T22:52:58;100094.03;;;10.27;44.35
54666;BME280;40566;50.006;36.180;2023-04-10T22:57:59;100089.03;;;10.18;44.44
54666;BME280;40566;50.006;36.180;2023-04-10T23:03:00;100082.22;;;10.16;44.56
54666;BME280;40566;50.006;36.180;2023-04-10T23:08:01;100083.88;;;10.17;44.92
54666;BME280;40566;50.006;36.180;2023-04-10T23:13:01;100079.66;;;10.12;44.98
54666;BME280;40566;50.006;36.180;2023-04-10T23:18:02;100075.28;;;10.16;44.79
54666;BME280;40566;50.006;36.180;2023-04-10T23:23:02;100063.28;;;10.13;44.85
54666;BME280;40566;50.006;36.180;2023-04-10T23:28:03;100057.34;;;10.08;44.81
54666;BME280;40566;50.006;36.180;2023-04-10T23:33:04;100050.63;;;10.01;45.00
54666;BME280;40566;50.006;36.180;2023-04-10T23:38:04;100057.59;;;9.98;45.27
54666;BME280;40566;50.006;36.180;2023-04-10T23:43:05;100049.09;;;9.91;45.35
54666;BME280;40566;50.006;36.180;2023-04-10T23:48:06;100042.28;;;9.87;45.76
54666;BME280;40566;50.006;36.180;2023-04-10T23:53:08;100050.13;;;9.84;45.48
54666;BME280;40566;50.006;36.180;2023-04-10T23:58:08;100050.97;;;9.83;45.49
